Archival Weather

Sharurah

Sharurah, Saudi Arabia (OESH)

Report from: Tuesday, September 19, 2023 1:00 PM +03
Current time: Saturday, June 22, 2024 2:40 AM +03

Current weather – Weather history – Daily summaries
Weather forecast

Temperature40.0°C (104.0°F)
Heat index37.9°C (100.2°F)
Dew point8.0°C (46.4°F)
Winds 7 kts (3.6 m/s, 8.1 mph) East (100°)
Visibility6.2 mi. (10 km)
Clouds Scattered clouds 4,000 ft. (1,219 m)
Scattered clouds 8,000 ft. (2,438 m)
Altimeter29.77 in.Hg (1008 mB)
Relative humidity15 %
Density altitude3,140 ft. (957 m)
Remarks No significant changes expected in the next two hours
Flight conditions Visual Meteorological Conditions
Raw dataOESH 191000Z 10007KT 9999 SCT040 SCT080 40/08 Q1008 NOSIG
An error has occurred. This application may no longer respond until reloaded. Reload 🗙